sensor_id;sensor_type;location;lat;lon;timestamp;pressure;altitude;pressure_sealevel;temperature
74533;BMP180;63012;51.096;-115.366;2022-09-28T00:01:54;86934.40;;;21.22
74533;BMP180;63012;51.096;-115.366;2022-09-28T00:04:46;86935.00;;;21.20
74533;BMP180;63012;51.096;-115.366;2022-09-28T00:08:15;86928.00;;;21.10
74533;BMP180;63012;51.096;-115.366;2022-09-28T00:11:05;86926.00;;;21.00
74533;BMP180;63012;51.096;-115.366;2022-09-28T00:14:04;86920.20;;;21.00
74533;BMP180;63012;51.096;-115.366;2022-09-28T00:20:25;86925.00;;;20.80
74533;BMP180;63012;51.096;-115.366;2022-09-28T00:23:21;86926.40;;;20.70
74533;BMP180;63012;51.096;-115.366;2022-09-28T00:26:47;86920.60;;;20.68
74533;BMP180;63012;51.096;-115.366;2022-09-28T00:29:38;86925.20;;;20.60
74533;BMP180;63012;51.096;-115.366;2022-09-28T00:33:05;86923.20;;;20.50
74533;BMP180;63012;51.096;-115.366;2022-09-28T00:36:15;86918.00;;;20.40
74533;BMP180;63012;51.096;-115.366;2022-09-28T00:38:56;86914.80;;;20.30
74533;BMP180;63012;51.096;-115.366;2022-09-28T00:42:24;86917.60;;;20.20
74533;BMP180;63012;51.096;-115.366;2022-09-28T00:48:57;86922.00;;;20.18
74533;BMP180;63012;51.096;-115.366;2022-09-28T00:59:06;86935.40;;;19.90
74533;BMP180;63012;51.096;-115.366;2022-09-28T01:02:03;86934.20;;;19.80
74533;BMP180;63012;51.096;-115.366;2022-09-28T01:09:08;86940.20;;;19.70
74533;BMP180;63012;51.096;-115.366;2022-09-28T01:15:26;86946.00;;;19.40
74533;BMP180;63012;51.096;-115.366;2022-09-28T01:30:22;86959.00;;;18.62
74533;BMP180;63012;51.096;-115.366;2022-09-28T01:34:12;86963.80;;;18.40
74533;BMP180;63012;51.096;-115.366;2022-09-28T01:41:25;86969.80;;;18.00
74533;BMP180;63012;51.096;-115.366;2022-09-28T02:04:00;86993.60;;;16.90
74533;BMP180;63012;51.096;-115.366;2022-09-28T02:32:18;87010.80;;;16.20
74533;BMP180;63012;51.096;-115.366;2022-09-28T03:11:19;87032.80;;;15.30
74533;BMP180;63012;51.096;-115.366;2022-09-28T04:29:18;87084.80;;;13.10
74533;BMP180;63012;51.096;-115.366;2022-09-28T04:51:57;87108.00;;;12.30
74533;BMP180;63012;51.096;-115.366;2022-09-28T05:40:15;87129.40;;;11.54
74533;BMP180;63012;51.096;-115.366;2022-09-28T06:14:01;87136.80;;;11.20
74533;BMP180;63012;51.096;-115.366;2022-09-28T06:18:13;87137.40;;;11.20
74533;BMP180;63012;51.096;-115.366;2022-09-28T06:36:27;87138.40;;;11.16
74533;BMP180;63012;51.096;-115.366;2022-09-28T07:17:57;87139.80;;;10.24
74533;BMP180;63012;51.096;-115.366;2022-09-28T07:56:15;87146.80;;;9.80
74533;BMP180;63012;51.096;-115.366;2022-09-28T10:52:48;87178.80;;;8.30
74533;BMP180;63012;51.096;-115.366;2022-09-28T11:34:34;87173.20;;;8.10
74533;BMP180;63012;51.096;-115.366;2022-09-28T14:13:00;87201.00;;;7.20
74533;BMP180;63012;51.096;-115.366;2022-09-28T14:36:46;87201.00;;;7.30
74533;BMP180;63012;51.096;-115.366;2022-09-28T15:41:19;87217.40;;;7.70
74533;BMP180;63012;51.096;-115.366;2022-09-28T16:54:51;87157.20;;;10.20
74533;BMP180;63012;51.096;-115.366;2022-09-28T17:28:37;87123.80;;;11.80
74533;BMP180;63012;51.096;-115.366;2022-09-28T18:55:44;87026.60;;;15.60
74533;BMP180;63012;51.096;-115.366;2022-09-28T19:06:50;87016.40;;;16.00
74533;BMP180;63012;51.096;-115.366;2022-09-28T19:43:08;86966.20;;;17.80
74533;BMP180;63012;51.096;-115.366;2022-09-28T19:57:33;86956.40;;;18.64
74533;BMP180;63012;51.096;-115.366;2022-09-28T20:11:29;86941.80;;;19.22
74533;BMP180;63012;51.096;-115.366;2022-09-28T20:14:41;86932.80;;;19.48
74533;BMP180;63012;51.096;-115.366;2022-09-28T20:17:34;86929.80;;;19.60
74533;BMP180;63012;51.096;-115.366;2022-09-28T20:20:45;86924.20;;;19.80
74533;BMP180;63012;51.096;-115.366;2022-09-28T20:23:55;86915.80;;;20.00
74533;BMP180;63012;51.096;-115.366;2022-09-28T20:27:18;86910.80;;;20.30
74533;BMP180;63012;51.096;-115.366;2022-09-28T20:30:06;86911.20;;;20.56
74533;BMP180;63012;51.096;-115.366;2022-09-28T20:33:06;86902.80;;;20.80
74533;BMP180;63012;51.096;-115.366;2022-09-28T20:35:34;86899.40;;;21.10
74533;BMP180;63012;51.096;-115.366;2022-09-28T20:38:42;86902.20;;;21.40
74533;BMP180;63012;51.096;-115.366;2022-09-28T20:41:39;86893.60;;;21.70
74533;BMP180;63012;51.096;-115.366;2022-09-28T20:44:26;86894.00;;;22.00
74533;BMP180;63012;51.096;-115.366;2022-09-28T20:46:54;86894.80;;;22.20
74533;BMP180;63012;51.096;-115.366;2022-09-28T20:49:42;86891.40;;;22.40
74533;BMP180;63012;51.096;-115.366;2022-09-28T20:52:10;86888.40;;;22.60
74533;BMP180;63012;51.096;-115.366;2022-09-28T20:54:37;86881.40;;;22.70
74533;BMP180;63012;51.096;-115.366;2022-09-28T20:57:13;86879.60;;;22.80
74533;BMP180;63012;51.096;-115.366;2022-09-28T20:59:45;86878.80;;;22.80
74533;BMP180;63012;51.096;-115.366;2022-09-28T21:02:17;86874.00;;;22.82
74533;BMP180;63012;51.096;-115.366;2022-09-28T21:04:52;86880.00;;;22.80
74533;BMP180;63012;51.096;-115.366;2022-09-28T21:07:19;86874.80;;;22.80
74533;BMP180;63012;51.096;-115.366;2022-09-28T21:09:50;86872.80;;;22.80
74533;BMP180;63012;51.096;-115.366;2022-09-28T21:12:19;86868.40;;;22.80
74533;BMP180;63012;51.096;-115.366;2022-09-28T21:14:55;86872.80;;;22.80
74533;BMP180;63012;51.096;-115.366;2022-09-28T21:17:25;86871.00;;;22.78
74533;BMP180;63012;51.096;-115.366;2022-09-28T21:20:08;86860.20;;;22.80
74533;BMP180;63012;51.096;-115.366;2022-09-28T21:22:35;86861.60;;;22.80
74533;BMP180;63012;51.096;-115.366;2022-09-28T21:25:25;86865.20;;;22.70
74533;BMP180;63012;51.096;-115.366;2022-09-28T21:27:53;86857.00;;;22.70
74533;BMP180;63012;51.096;-115.366;2022-09-28T21:30:20;86864.60;;;22.66
74533;BMP180;63012;51.096;-115.366;2022-09-28T21:32:51;86858.40;;;22.64
74533;BMP180;63012;51.096;-115.366;2022-09-28T21:35:18;86856.00;;;22.62
74533;BMP180;63012;51.096;-115.366;2022-09-28T21:37:46;86855.80;;;22.60
74533;BMP180;63012;51.096;-115.366;2022-09-28T21:40:53;86850.20;;;22.60
74533;BMP180;63012;51.096;-115.366;2022-09-28T21:43:25;86844.00;;;22.70
74533;BMP180;63012;51.096;-115.366;2022-09-28T21:45:54;86847.00;;;22.70
74533;BMP180;63012;51.096;-115.366;2022-09-28T21:48:27;86847.80;;;22.70
74533;BMP180;63012;51.096;-115.366;2022-09-28T21:51:29;86849.00;;;22.60
74533;BMP180;63012;51.096;-115.366;2022-09-28T21:54:17;86848.80;;;22.60
74533;BMP180;63012;51.096;-115.366;2022-09-28T21:57:17;86844.60;;;22.48
74533;BMP180;63012;51.096;-115.366;2022-09-28T22:04:01;86839.00;;;22.30
74533;BMP180;63012;51.096;-115.366;2022-09-28T22:10:12;86832.40;;;22.20
74533;BMP180;63012;51.096;-115.366;2022-09-28T22:13:20;86834.40;;;22.20
74533;BMP180;63012;51.096;-115.366;2022-09-28T22:16:06;86834.00;;;22.20
74533;BMP180;63012;51.096;-115.366;2022-09-28T22:19:01;86834.20;;;22.20
74533;BMP180;63012;51.096;-115.366;2022-09-28T22:21:31;86827.80;;;22.20
74533;BMP180;63012;51.096;-115.366;2022-09-28T22:24:28;86832.40;;;22.20
74533;BMP180;63012;51.096;-115.366;2022-09-28T22:27:16;86836.80;;;22.24
74533;BMP180;63012;51.096;-115.366;2022-09-28T22:30:24;86829.00;;;22.28
74533;BMP180;63012;51.096;-115.366;2022-09-28T22:32:58;86823.40;;;22.30
74533;BMP180;63012;51.096;-115.366;2022-09-28T22:35:41;86821.80;;;22.30
74533;BMP180;63012;51.096;-115.366;2022-09-28T22:38:53;86821.80;;;22.40
74533;BMP180;63012;51.096;-115.366;2022-09-28T22:41:31;86822.40;;;22.46
74533;BMP180;63012;51.096;-115.366;2022-09-28T22:44:19;86825.20;;;22.60
74533;BMP180;63012;51.096;-115.366;2022-09-28T22:47:06;86821.40;;;22.60
74533;BMP180;63012;51.096;-115.366;2022-09-28T22:49:33;86818.40;;;22.70
74533;BMP180;63012;51.096;-115.366;2022-09-28T22:52:01;86810.80;;;22.80
74533;BMP180;63012;51.096;-115.366;2022-09-28T22:54:57;86815.40;;;22.90
74533;BMP180;63012;51.096;-115.366;2022-09-28T22:57:38;86812.60;;;23.00
74533;BMP180;63012;51.096;-115.366;2022-09-28T23:00:08;86805.00;;;23.02
74533;BMP180;63012;51.096;-115.366;2022-09-28T23:02:59;86809.60;;;23.00
74533;BMP180;63012;51.096;-115.366;2022-09-28T23:05:40;86805.20;;;23.00
74533;BMP180;63012;51.096;-115.366;2022-09-28T23:08:20;86809.00;;;23.00
74533;BMP180;63012;51.096;-115.366;2022-09-28T23:11:00;86806.40;;;22.90
74533;BMP180;63012;51.096;-115.366;2022-09-28T23:13:38;86810.40;;;22.90
74533;BMP180;63012;51.096;-115.366;2022-09-28T23:16:27;86809.80;;;22.80
74533;BMP180;63012;51.096;-115.366;2022-09-28T23:19:16;86809.60;;;22.70
74533;BMP180;63012;51.096;-115.366;2022-09-28T23:21:43;86808.80;;;22.68
74533;BMP180;63012;51.096;-115.366;2022-09-28T23:27:06;86812.60;;;22.50
74533;BMP180;63012;51.096;-115.366;2022-09-28T23:30:13;86811.20;;;22.40
74533;BMP180;63012;51.096;-115.366;2022-09-28T23:36:38;86809.00;;;22.14
74533;BMP180;63012;51.096;-115.366;2022-09-28T23:39:48;86804.00;;;22.00
74533;BMP180;63012;51.096;-115.366;2022-09-28T23:42:45;86803.00;;;21.90
74533;BMP180;63012;51.096;-115.366;2022-09-28T23:45:31;86807.20;;;21.80
74533;BMP180;63012;51.096;-115.366;2022-09-28T23:48:49;86803.20;;;21.70
74533;BMP180;63012;51.096;-115.366;2022-09-28T23:52:22;86808.80;;;21.60
74533;BMP180;63012;51.096;-115.366;2022-09-28T23:58:33;86815.40;;;21.48
